sensor_id;sensor_type;location;lat;lon;timestamp;P1;durP1;ratioP1;P2;durP2;ratioP2
44706;SDS011;30433;45.596;8.408;2024-02-26T00:04:10;8.85;;;7.43;;
44706;SDS011;30433;45.596;8.408;2024-02-26T00:10:14;8.88;;;6.78;;
44706;SDS011;30433;45.596;8.408;2024-02-26T00:16:16;7.72;;;6.05;;
44706;SDS011;30433;45.596;8.408;2024-02-26T00:22:18;7.32;;;6.32;;
44706;SDS011;30433;45.596;8.408;2024-02-26T00:28:23;10.90;;;6.53;;
44706;SDS011;30433;45.596;8.408;2024-02-26T00:34:27;9.93;;;6.32;;
44706;SDS011;30433;45.596;8.408;2024-02-26T00:40:29;8.68;;;7.03;;
44706;SDS011;30433;45.596;8.408;2024-02-26T00:46:33;7.93;;;6.70;;
44706;SDS011;30433;45.596;8.408;2024-02-26T00:58:37;8.48;;;6.68;;
44706;SDS011;30433;45.596;8.408;2024-02-26T01:04:40;8.70;;;6.43;;
44706;SDS011;30433;45.596;8.408;2024-02-26T01:16:44;7.18;;;5.20;;
44706;SDS011;30433;45.596;8.408;2024-02-26T01:22:48;6.40;;;4.85;;
44706;SDS011;30433;45.596;8.408;2024-02-26T01:34:51;7.05;;;5.32;;
44706;SDS011;30433;45.596;8.408;2024-02-26T01:40:55;6.15;;;4.45;;
44706;SDS011;30433;45.596;8.408;2024-02-26T01:53:01;5.30;;;3.67;;
44706;SDS011;30433;45.596;8.408;2024-02-26T01:59:05;4.82;;;4.05;;
44706;SDS011;30433;45.596;8.408;2024-02-26T02:05:09;4.68;;;4.07;;
44706;SDS011;30433;45.596;8.408;2024-02-26T02:11:12;5.43;;;4.05;;
44706;SDS011;30433;45.596;8.408;2024-02-26T02:17:17;5.97;;;4.20;;
44706;SDS011;30433;45.596;8.408;2024-02-26T02:29:22;5.78;;;5.18;;
44706;SDS011;30433;45.596;8.408;2024-02-26T02:35:24;6.30;;;5.70;;
44706;SDS011;30433;45.596;8.408;2024-02-26T02:41:28;7.18;;;5.38;;
44706;SDS011;30433;45.596;8.408;2024-02-26T02:47:30;6.53;;;5.32;;
44706;SDS011;30433;45.596;8.408;2024-02-26T02:53:32;5.28;;;3.65;;
44706;SDS011;30433;45.596;8.408;2024-02-26T02:59:36;4.10;;;2.95;;
44706;SDS011;30433;45.596;8.408;2024-02-26T03:05:38;3.28;;;2.80;;
44706;SDS011;30433;45.596;8.408;2024-02-26T03:11:40;3.08;;;2.78;;
44706;SDS011;30433;45.596;8.408;2024-02-26T03:17:44;3.20;;;2.75;;
44706;SDS011;30433;45.596;8.408;2024-02-26T03:29:48;3.63;;;2.45;;
44706;SDS011;30433;45.596;8.408;2024-02-26T03:35:52;2.30;;;1.90;;
44706;SDS011;30433;45.596;8.408;2024-02-26T03:47:56;1.85;;;1.42;;
44706;SDS011;30433;45.596;8.408;2024-02-26T03:54:00;1.83;;;1.50;;
44706;SDS011;30433;45.596;8.408;2024-02-26T04:06:07;2.55;;;1.52;;
44706;SDS011;30433;45.596;8.408;2024-02-26T04:12:12;1.95;;;1.30;;
44706;SDS011;30433;45.596;8.408;2024-02-26T04:18:14;3.30;;;0.95;;
44706;SDS011;30433;45.596;8.408;2024-02-26T04:24:16;1.67;;;0.88;;
44706;SDS011;30433;45.596;8.408;2024-02-26T04:30:20;0.93;;;0.80;;
44706;SDS011;30433;45.596;8.408;2024-02-26T04:42:25;1.95;;;0.80;;
44706;SDS011;30433;45.596;8.408;2024-02-26T04:48:29;0.73;;;0.50;;
44706;SDS011;30433;45.596;8.408;2024-02-26T05:00:33;0.93;;;0.60;;
44706;SDS011;30433;45.596;8.408;2024-02-26T05:06:37;1.88;;;0.90;;
44706;SDS011;30433;45.596;8.408;2024-02-26T05:12:39;2.70;;;0.60;;
44706;SDS011;30433;45.596;8.408;2024-02-26T05:18:42;2.50;;;0.90;;
44706;SDS011;30433;45.596;8.408;2024-02-26T05:24:46;1.38;;;0.80;;
44706;SDS011;30433;45.596;8.408;2024-02-26T05:36:50;3.10;;;1.60;;
44706;SDS011;30433;45.596;8.408;2024-02-26T05:42:53;1.95;;;1.20;;
44706;SDS011;30433;45.596;8.408;2024-02-26T05:54:57;1.25;;;0.82;;
44706;SDS011;30433;45.596;8.408;2024-02-26T06:01:01;2.60;;;1.50;;
44706;SDS011;30433;45.596;8.408;2024-02-26T06:13:05;2.53;;;1.60;;
44706;SDS011;30433;45.596;8.408;2024-02-26T06:19:08;4.00;;;1.50;;
44706;SDS011;30433;45.596;8.408;2024-02-26T06:25:11;2.65;;;1.58;;
44706;SDS011;30433;45.596;8.408;2024-02-26T06:31:13;1.90;;;1.17;;
44706;SDS011;30433;45.596;8.408;2024-02-26T06:37:16;2.60;;;1.58;;
44706;SDS011;30433;45.596;8.408;2024-02-26T06:49:20;2.45;;;1.27;;
44706;SDS011;30433;45.596;8.408;2024-02-26T06:55:24;2.72;;;1.50;;
44706;SDS011;30433;45.596;8.408;2024-02-26T07:07:28;5.63;;;1.20;;
44706;SDS011;30433;45.596;8.408;2024-02-26T07:13:32;2.05;;;1.30;;
44706;SDS011;30433;45.596;8.408;2024-02-26T07:19:35;1.73;;;0.95;;
44706;SDS011;30433;45.596;8.408;2024-02-26T07:25:37;3.55;;;0.80;;
44706;SDS011;30433;45.596;8.408;2024-02-26T07:31:41;3.10;;;0.90;;
44706;SDS011;30433;45.596;8.408;2024-02-26T07:43:45;1.10;;;0.55;;
44706;SDS011;30433;45.596;8.408;2024-02-26T07:49:48;0.60;;;0.40;;
44706;SDS011;30433;45.596;8.408;2024-02-26T08:01:52;1.98;;;0.90;;
44706;SDS011;30433;45.596;8.408;2024-02-26T08:07:56;1.90;;;1.30;;
44706;SDS011;30433;45.596;8.408;2024-02-26T08:20:00;2.35;;;1.45;;
44706;SDS011;30433;45.596;8.408;2024-02-26T08:26:04;3.00;;;1.33;;
44706;SDS011;30433;45.596;8.408;2024-02-26T08:32:10;2.13;;;1.50;;
44706;SDS011;30433;45.596;8.408;2024-02-26T08:38:12;2.10;;;1.40;;
44706;SDS011;30433;45.596;8.408;2024-02-26T08:44:16;1.90;;;1.20;;
44706;SDS011;30433;45.596;8.408;2024-02-26T08:56:20;3.15;;;1.60;;
44706;SDS011;30433;45.596;8.408;2024-02-26T09:02:23;3.25;;;1.85;;
44706;SDS011;30433;45.596;8.408;2024-02-26T09:14:27;2.33;;;1.10;;
44706;SDS011;30433;45.596;8.408;2024-02-26T09:20:31;2.25;;;0.50;;
44706;SDS011;30433;45.596;8.408;2024-02-26T09:32:34;1.83;;;0.90;;
44706;SDS011;30433;45.596;8.408;2024-02-26T09:38:38;1.45;;;0.80;;
44706;SDS011;30433;45.596;8.408;2024-02-26T09:50:43;1.52;;;1.05;;
44706;SDS011;30433;45.596;8.408;2024-02-26T09:56:47;1.40;;;1.05;;
44706;SDS011;30433;45.596;8.408;2024-02-26T10:02:53;3.75;;;1.00;;
44706;SDS011;30433;45.596;8.408;2024-02-26T10:08:58;1.42;;;0.80;;
44706;SDS011;30433;45.596;8.408;2024-02-26T10:15:06;1.85;;;1.05;;
44706;SDS011;30433;45.596;8.408;2024-02-26T10:21:08;1.50;;;1.10;;
44706;SDS011;30433;45.596;8.408;2024-02-26T10:27:11;2.55;;;1.20;;
44706;SDS011;30433;45.596;8.408;2024-02-26T10:33:14;1.30;;;0.90;;
44706;SDS011;30433;45.596;8.408;2024-02-26T10:39:17;2.58;;;1.00;;
44706;SDS011;30433;45.596;8.408;2024-02-26T10:45:19;1.50;;;0.80;;
44706;SDS011;30433;45.596;8.408;2024-02-26T10:51:24;0.80;;;0.60;;
44706;SDS011;30433;45.596;8.408;2024-02-26T10:57:29;1.38;;;0.70;;
44706;SDS011;30433;45.596;8.408;2024-02-26T11:03:34;1.17;;;0.70;;
44706;SDS011;30433;45.596;8.408;2024-02-26T11:09:40;1.13;;;0.50;;
44706;SDS011;30433;45.596;8.408;2024-02-26T11:15:46;1.30;;;0.80;;
44706;SDS011;30433;45.596;8.408;2024-02-26T11:21:49;1.73;;;0.90;;
44706;SDS011;30433;45.596;8.408;2024-02-26T11:27:53;1.38;;;0.98;;
44706;SDS011;30433;45.596;8.408;2024-02-26T11:34:01;0.88;;;0.50;;
44706;SDS011;30433;45.596;8.408;2024-02-26T11:40:03;1.52;;;0.85;;
44706;SDS011;30433;45.596;8.408;2024-02-26T11:52:25;1.33;;;0.70;;
44706;SDS011;30433;45.596;8.408;2024-02-26T11:58:30;1.35;;;0.80;;
44706;SDS011;30433;45.596;8.408;2024-02-26T12:04:34;0.98;;;0.65;;
44706;SDS011;30433;45.596;8.408;2024-02-26T12:10:38;0.50;;;0.38;;
44706;SDS011;30433;45.596;8.408;2024-02-26T12:16:41;1.33;;;0.60;;
44706;SDS011;30433;45.596;8.408;2024-02-26T12:22:46;1.20;;;0.40;;
44706;SDS011;30433;45.596;8.408;2024-02-26T12:28:52;0.63;;;0.55;;
44706;SDS011;30433;45.596;8.408;2024-02-26T12:34:54;0.90;;;0.50;;
44706;SDS011;30433;45.596;8.408;2024-02-26T12:40:59;0.85;;;0.38;;
44706;SDS011;30433;45.596;8.408;2024-02-26T12:53:04;0.63;;;0.30;;
44706;SDS011;30433;45.596;8.408;2024-02-26T13:05:11;3.20;;;1.00;;
44706;SDS011;30433;45.596;8.408;2024-02-26T13:11:14;1.13;;;0.60;;
44706;SDS011;30433;45.596;8.408;2024-02-26T13:17:22;0.98;;;0.32;;
44706;SDS011;30433;45.596;8.408;2024-02-26T13:23:25;0.63;;;0.30;;
44706;SDS011;30433;45.596;8.408;2024-02-26T13:29:27;1.00;;;0.50;;
44706;SDS011;30433;45.596;8.408;2024-02-26T13:35:31;1.30;;;0.45;;
44706;SDS011;30433;45.596;8.408;2024-02-26T13:41:35;1.08;;;0.60;;
44706;SDS011;30433;45.596;8.408;2024-02-26T13:47:37;0.65;;;0.50;;
44706;SDS011;30433;45.596;8.408;2024-02-26T13:53:42;0.55;;;0.50;;
44706;SDS011;30433;45.596;8.408;2024-02-26T14:05:46;1.25;;;0.88;;
44706;SDS011;30433;45.596;8.408;2024-02-26T14:11:49;1.30;;;0.90;;
44706;SDS011;30433;45.596;8.408;2024-02-26T14:23:56;2.10;;;0.90;;
44706;SDS011;30433;45.596;8.408;2024-02-26T14:29:59;1.35;;;0.90;;
44706;SDS011;30433;45.596;8.408;2024-02-26T14:42:04;1.50;;;1.00;;
44706;SDS011;30433;45.596;8.408;2024-02-26T14:48:08;1.50;;;1.00;;
44706;SDS011;30433;45.596;8.408;2024-02-26T14:54:11;1.73;;;1.10;;
44706;SDS011;30433;45.596;8.408;2024-02-26T15:00:14;2.20;;;1.30;;
44706;SDS011;30433;45.596;8.408;2024-02-26T15:06:18;3.13;;;1.43;;
44706;SDS011;30433;45.596;8.408;2024-02-26T15:12:20;2.03;;;1.55;;
44706;SDS011;30433;45.596;8.408;2024-02-26T15:18:22;2.33;;;1.50;;
44706;SDS011;30433;45.596;8.408;2024-02-26T15:24:27;2.75;;;1.90;;
44706;SDS011;30433;45.596;8.408;2024-02-26T15:30:30;15.10;;;2.58;;
44706;SDS011;30433;45.596;8.408;2024-02-26T15:36:33;2.93;;;1.97;;
44706;SDS011;30433;45.596;8.408;2024-02-26T15:42:38;2.75;;;2.20;;
44706;SDS011;30433;45.596;8.408;2024-02-26T15:48:40;2.78;;;2.20;;
44706;SDS011;30433;45.596;8.408;2024-02-26T15:54:42;3.42;;;2.05;;
44706;SDS011;30433;45.596;8.408;2024-02-26T16:00:45;2.95;;;2.10;;
44706;SDS011;30433;45.596;8.408;2024-02-26T16:06:48;4.38;;;2.38;;
44706;SDS011;30433;45.596;8.408;2024-02-26T16:12:53;3.92;;;2.60;;
44706;SDS011;30433;45.596;8.408;2024-02-26T16:19:06;2.88;;;1.83;;
44706;SDS011;30433;45.596;8.408;2024-02-26T16:25:11;2.08;;;1.30;;
44706;SDS011;30433;45.596;8.408;2024-02-26T16:31:13;2.28;;;1.58;;
44706;SDS011;30433;45.596;8.408;2024-02-26T16:37:17;3.55;;;2.42;;
44706;SDS011;30433;45.596;8.408;2024-02-26T16:43:19;3.20;;;2.00;;
44706;SDS011;30433;45.596;8.408;2024-02-26T16:49:21;5.18;;;2.17;;
44706;SDS011;30433;45.596;8.408;2024-02-26T16:55:25;18.42;;;7.15;;
44706;SDS011;30433;45.596;8.408;2024-02-26T17:01:27;4.68;;;4.18;;
44706;SDS011;30433;45.596;8.408;2024-02-26T17:07:29;4.78;;;3.40;;
44706;SDS011;30433;45.596;8.408;2024-02-26T17:13:33;3.90;;;2.63;;
44706;SDS011;30433;45.596;8.408;2024-02-26T17:19:37;4.85;;;3.17;;
44706;SDS011;30433;45.596;8.408;2024-02-26T17:25:39;4.72;;;3.10;;
44706;SDS011;30433;45.596;8.408;2024-02-26T17:31:44;5.13;;;3.50;;
44706;SDS011;30433;45.596;8.408;2024-02-26T17:43:48;4.30;;;3.42;;
44706;SDS011;30433;45.596;8.408;2024-02-26T17:49:52;2.55;;;2.00;;
44706;SDS011;30433;45.596;8.408;2024-02-26T18:01:56;3.03;;;2.15;;
44706;SDS011;30433;45.596;8.408;2024-02-26T18:07:59;6.07;;;2.20;;
44706;SDS011;30433;45.596;8.408;2024-02-26T18:20:04;3.97;;;2.50;;
44706;SDS011;30433;45.596;8.408;2024-02-26T18:26:09;4.07;;;3.30;;
44706;SDS011;30433;45.596;8.408;2024-02-26T18:32:11;3.92;;;3.00;;
44706;SDS011;30433;45.596;8.408;2024-02-26T18:38:13;4.53;;;3.22;;
44706;SDS011;30433;45.596;8.408;2024-02-26T18:44:17;4.90;;;2.83;;
44706;SDS011;30433;45.596;8.408;2024-02-26T18:56:21;4.95;;;3.83;;
44706;SDS011;30433;45.596;8.408;2024-02-26T19:02:24;7.82;;;4.20;;
44706;SDS011;30433;45.596;8.408;2024-02-26T19:08:28;5.40;;;4.10;;
44706;SDS011;30433;45.596;8.408;2024-02-26T19:14:30;5.03;;;3.33;;
44706;SDS011;30433;45.596;8.408;2024-02-26T19:20:34;5.55;;;3.03;;
44706;SDS011;30433;45.596;8.408;2024-02-26T19:38:44;3.78;;;3.08;;
44706;SDS011;30433;45.596;8.408;2024-02-26T19:50:48;3.83;;;3.10;;
44706;SDS011;30433;45.596;8.408;2024-02-26T19:56:51;3.90;;;3.00;;
44706;SDS011;30433;45.596;8.408;2024-02-26T20:08:55;3.22;;;2.10;;
44706;SDS011;30433;45.596;8.408;2024-02-26T20:14:59;3.43;;;2.77;;
44706;SDS011;30433;45.596;8.408;2024-02-26T20:21:02;3.40;;;2.38;;
44706;SDS011;30433;45.596;8.408;2024-02-26T20:27:05;3.63;;;2.50;;
44706;SDS011;30433;45.596;8.408;2024-02-26T20:33:08;1.87;;;1.30;;
44706;SDS011;30433;45.596;8.408;2024-02-26T20:45:13;1.73;;;1.20;;
44706;SDS011;30433;45.596;8.408;2024-02-26T20:51:16;2.23;;;1.63;;
44706;SDS011;30433;45.596;8.408;2024-02-26T21:03:20;1.88;;;1.40;;
44706;SDS011;30433;45.596;8.408;2024-02-26T21:09:24;3.58;;;1.50;;
44706;SDS011;30433;45.596;8.408;2024-02-26T21:21:28;2.90;;;2.17;;
44706;SDS011;30433;45.596;8.408;2024-02-26T21:27:35;2.92;;;2.15;;
44706;SDS011;30433;45.596;8.408;2024-02-26T21:39:38;3.05;;;2.08;;
44706;SDS011;30433;45.596;8.408;2024-02-26T21:45:42;4.55;;;2.70;;
44706;SDS011;30433;45.596;8.408;2024-02-26T21:51:44;4.10;;;2.83;;
44706;SDS011;30433;45.596;8.408;2024-02-26T21:57:47;4.05;;;2.90;;
44706;SDS011;30433;45.596;8.408;2024-02-26T22:03:51;3.67;;;2.83;;
44706;SDS011;30433;45.596;8.408;2024-02-26T22:09:53;4.75;;;2.80;;
44706;SDS011;30433;45.596;8.408;2024-02-26T22:15:55;6.63;;;3.08;;
44706;SDS011;30433;45.596;8.408;2024-02-26T22:21:58;4.95;;;3.00;;
44706;SDS011;30433;45.596;8.408;2024-02-26T22:34:02;4.13;;;3.20;;
44706;SDS011;30433;45.596;8.408;2024-02-26T22:40:07;4.25;;;2.80;;
44706;SDS011;30433;45.596;8.408;2024-02-26T22:46:09;3.47;;;2.10;;
44706;SDS011;30433;45.596;8.408;2024-02-26T22:52:11;3.85;;;2.70;;
44706;SDS011;30433;45.596;8.408;2024-02-26T22:58:15;3.45;;;2.20;;
44706;SDS011;30433;45.596;8.408;2024-02-26T23:10:19;3.92;;;1.90;;
44706;SDS011;30433;45.596;8.408;2024-02-26T23:16:23;2.53;;;1.70;;
44706;SDS011;30433;45.596;8.408;2024-02-26T23:28:26;1.88;;;1.10;;
44706;SDS011;30433;45.596;8.408;2024-02-26T23:34:30;3.08;;;1.42;;
44706;SDS011;30433;45.596;8.408;2024-02-26T23:46:34;3.53;;;1.52;;
44706;SDS011;30433;45.596;8.408;2024-02-26T23:52:38;2.20;;;1.33;;
